createdAt,value
2023-02-20T18:26:22.831Z,11.20
2023-02-20T18:26:56.928Z,14.00
2023-02-20T18:27:57.968Z,14.00
2023-02-20T18:28:56.895Z,15.40
2023-02-20T18:29:56.892Z,13.90
2023-02-20T18:30:56.965Z,15.60
2023-02-20T18:31:56.985Z,14.40
2023-02-20T18:32:56.881Z,13.90
2023-02-20T18:33:56.812Z,13.70
2023-02-20T18:34:56.820Z,15.30
2023-02-20T18:36:07.584Z,15.50
2023-02-20T18:36:58.860Z,13.40
2023-02-20T18:37:57.321Z,14.10
2023-02-20T18:38:56.778Z,13.10
2023-02-20T18:39:56.774Z,14.50
2023-02-20T18:40:57.784Z,13.20
2023-02-20T18:41:56.931Z,14.70
2023-02-20T18:42:56.766Z,15.50
2023-02-20T18:43:56.806Z,15.30
2023-02-20T18:44:56.758Z,14.70
2023-02-20T18:45:56.830Z,14.20
2023-02-20T18:46:56.738Z,14.80
2023-02-20T18:47:56.776Z,12.40
2023-02-20T18:48:56.767Z,14.30
2023-02-20T18:49:56.736Z,14.70
2023-02-20T18:50:56.730Z,14.70
2023-02-20T18:51:56.728Z,16.00
2023-02-20T18:52:56.692Z,14.90
2023-02-20T18:53:56.713Z,15.30
2023-02-20T18:54:56.706Z,14.20
2023-02-20T18:55:56.757Z,15.10
2023-02-20T18:56:56.718Z,15.20
2023-02-20T18:57:57.446Z,13.60
2023-02-20T18:58:56.826Z,14.80
2023-02-20T18:59:56.787Z,16.70
2023-02-20T19:00:56.730Z,14.50
2023-02-20T19:01:56.702Z,14.20
2023-02-20T19:02:56.603Z,15.00
2023-02-20T19:03:56.645Z,15.70
2023-02-20T19:04:56.661Z,15.00
2023-02-20T19:05:56.615Z,14.70
2023-02-20T19:06:56.586Z,15.20
2023-02-20T19:07:56.606Z,14.10
2023-02-20T19:08:56.678Z,14.60
2023-02-20T19:09:56.590Z,13.60
2023-02-20T19:10:56.594Z,15.10
2023-02-20T19:11:56.548Z,14.80
2023-02-20T19:12:56.601Z,14.20
2023-02-20T19:13:56.601Z,13.40
2023-02-20T19:14:56.539Z,13.60
2023-02-20T19:15:56.628Z,16.80
2023-02-20T19:16:56.564Z,23.80
2023-02-20T19:17:56.576Z,22.60
2023-02-20T19:18:56.582Z,22.10
2023-02-20T19:19:56.514Z,13.90
2023-02-20T19:20:56.481Z,16.00
2023-02-20T19:21:56.542Z,15.60
2023-02-20T19:22:56.504Z,16.70
2023-02-20T19:23:56.543Z,15.00
2023-02-20T19:24:56.557Z,15.60
2023-02-20T19:25:56.476Z,14.60
2023-02-20T19:26:56.462Z,16.00
2023-02-20T19:27:56.466Z,13.90
2023-02-20T19:28:56.541Z,16.20
2023-02-20T19:29:56.436Z,15.10
2023-02-20T19:30:56.478Z,14.20
2023-02-20T19:31:56.523Z,16.80
2023-02-20T19:32:56.431Z,16.50
2023-02-20T19:33:56.446Z,17.30
2023-02-20T19:34:56.525Z,15.90
2023-02-20T19:35:56.439Z,14.50
2023-02-20T19:36:56.420Z,14.90
2023-02-20T19:37:56.384Z,16.70
2023-02-20T19:38:56.441Z,15.40
2023-02-20T19:39:56.379Z,15.80
2023-02-20T19:40:56.410Z,14.90
2023-02-20T19:41:56.342Z,14.40
2023-02-20T19:42:56.456Z,15.20
2023-02-20T19:43:56.374Z,16.20
2023-02-20T19:44:56.329Z,14.90
2023-02-20T19:45:56.513Z,15.40
2023-02-20T19:46:56.339Z,14.50
2023-02-20T19:47:56.306Z,14.80
2023-02-20T19:48:56.337Z,15.00
2023-02-20T19:49:56.405Z,15.20
2023-02-20T19:50:56.405Z,16.30
2023-02-20T19:51:56.283Z,14.60
2023-02-20T19:52:56.306Z,14.00
2023-02-20T19:53:56.287Z,13.60
2023-02-20T19:54:56.290Z,12.90
2023-02-20T19:55:56.240Z,13.90
2023-02-20T19:56:56.244Z,13.80
2023-02-20T19:57:56.280Z,13.40
2023-02-20T19:58:57.317Z,12.20
2023-02-20T19:59:56.313Z,12.50
2023-02-20T20:00:56.289Z,12.50
2023-02-20T20:01:56.219Z,12.90
2023-02-20T20:02:56.212Z,12.30
2023-02-20T20:03:56.239Z,12.60
2023-02-20T20:04:56.227Z,11.50
2023-02-20T20:05:56.216Z,10.60
2023-02-20T20:06:56.305Z,11.40
2023-02-20T20:07:56.193Z,14.40
2023-02-20T20:09:12.315Z,12.40
2023-02-20T20:09:58.197Z,12.50
2023-02-20T20:10:56.212Z,12.30
2023-02-20T20:11:56.153Z,15.30
2023-02-20T20:12:56.158Z,12.40
2023-02-20T20:13:56.157Z,12.40
2023-02-20T20:14:56.202Z,20.30
2023-02-20T20:15:56.105Z,11.70
2023-02-20T20:16:56.164Z,11.80
2023-02-20T20:17:56.095Z,12.10
2023-02-20T20:18:56.125Z,10.80
2023-02-20T20:20:00.237Z,11.50
2023-02-20T20:20:57.103Z,11.40
2023-02-20T20:21:56.065Z,10.90
2023-02-20T20:22:56.036Z,10.30
2023-02-20T20:23:56.069Z,9.60
